sensor_id;sensor_type;location;lat;lon;timestamp;pressure;altitude;pressure_sealevel;temperature;humidity
39729;BME280;25402;42.004;23.088;2023-09-19T00:00:07;97770.66;;;12.49;53.00
39729;BME280;25402;42.004;23.088;2023-09-19T00:02:35;97763.56;;;12.48;53.02
39729;BME280;25402;42.004;23.088;2023-09-19T00:05:02;97761.22;;;12.45;53.00
39729;BME280;25402;42.004;23.088;2023-09-19T00:07:30;97762.25;;;12.44;53.19
39729;BME280;25402;42.004;23.088;2023-09-19T00:09:57;97736.22;;;12.29;53.14
39729;BME280;25402;42.004;23.088;2023-09-19T00:12:26;97742.38;;;12.37;53.11
39729;BME280;25402;42.004;23.088;2023-09-19T00:14:54;97765.38;;;12.41;53.39
39729;BME280;25402;42.004;23.088;2023-09-19T00:17:22;97757.03;;;12.43;53.29
39729;BME280;25402;42.004;23.088;2023-09-19T00:19:52;97755.28;;;12.35;53.41
39729;BME280;25402;42.004;23.088;2023-09-19T00:22:19;97735.59;;;12.27;53.09
39729;BME280;25402;42.004;23.088;2023-09-19T00:24:46;97746.63;;;12.25;53.35
39729;BME280;25402;42.004;23.088;2023-09-19T00:27:13;97746.31;;;12.35;53.21
39729;BME280;25402;42.004;23.088;2023-09-19T00:29:40;97755.66;;;12.32;53.22
39729;BME280;25402;42.004;23.088;2023-09-19T00:32:08;97750.63;;;12.29;53.24
39729;BME280;25402;42.004;23.088;2023-09-19T00:34:35;97762.50;;;12.28;53.27
39729;BME280;25402;42.004;23.088;2023-09-19T00:37:02;97750.94;;;12.20;53.28
39729;BME280;25402;42.004;23.088;2023-09-19T00:39:30;97758.88;;;12.21;53.04
39729;BME280;25402;42.004;23.088;2023-09-19T00:41:57;97759.81;;;12.13;52.86
39729;BME280;25402;42.004;23.088;2023-09-19T00:44:24;97764.81;;;12.10;53.12
39729;BME280;25402;42.004;23.088;2023-09-19T00:46:52;97708.00;;;11.72;53.58
39729;BME280;25402;42.004;23.088;2023-09-19T00:49:21;97731.72;;;11.85;53.24
39729;BME280;25402;42.004;23.088;2023-09-19T00:51:48;97755.22;;;11.93;53.34
39729;BME280;25402;42.004;23.088;2023-09-19T00:54:16;97738.34;;;11.82;53.44
39729;BME280;25402;42.004;23.088;2023-09-19T00:56:45;97755.13;;;11.86;53.57
39729;BME280;25402;42.004;23.088;2023-09-19T00:59:14;97754.91;;;11.73;54.39
39729;BME280;25402;42.004;23.088;2023-09-19T01:01:42;97757.25;;;11.76;54.12
39729;BME280;25402;42.004;23.088;2023-09-19T01:04:11;97738.75;;;11.65;54.46
39729;BME280;25402;42.004;23.088;2023-09-19T01:06:40;97749.97;;;11.76;54.33
39729;BME280;25402;42.004;23.088;2023-09-19T01:09:07;97733.13;;;11.66;54.37
39729;BME280;25402;42.004;23.088;2023-09-19T01:11:38;97756.66;;;11.80;54.29
39729;BME280;25402;42.004;23.088;2023-09-19T01:14:19;97747.72;;;11.80;54.17
39729;BME280;25402;42.004;23.088;2023-09-19T01:16:53;97755.19;;;11.78;54.12
39729;BME280;25402;42.004;23.088;2023-09-19T01:22:53;97752.69;;;11.76;53.79
39729;BME280;25402;42.004;23.088;2023-09-19T01:28:32;97758.47;;;11.73;53.89
39729;BME280;25402;42.004;23.088;2023-09-19T01:31:09;97756.59;;;11.74;54.04
39729;BME280;25402;42.004;23.088;2023-09-19T01:33:56;97753.03;;;11.73;53.94
39729;BME280;25402;42.004;23.088;2023-09-19T01:36:28;97743.34;;;11.64;53.82
39729;BME280;25402;42.004;23.088;2023-09-19T01:38:57;97715.97;;;11.44;54.00
39729;BME280;25402;42.004;23.088;2023-09-19T01:41:51;97745.13;;;11.57;53.94
39729;BME280;25402;42.004;23.088;2023-09-19T01:44:25;97715.22;;;11.36;54.11
39729;BME280;25402;42.004;23.088;2023-09-19T01:46:58;97721.94;;;11.40;54.11
39729;BME280;25402;42.004;23.088;2023-09-19T01:49:34;97742.47;;;11.49;54.38
39729;BME280;25402;42.004;23.088;2023-09-19T01:52:09;97700.66;;;11.22;54.19
39729;BME280;25402;42.004;23.088;2023-09-19T01:54:44;97737.47;;;11.46;54.19
39729;BME280;25402;42.004;23.088;2023-09-19T01:57:17;97734.09;;;11.44;54.33
39729;BME280;25402;42.004;23.088;2023-09-19T01:59:50;97730.72;;;11.42;54.58
39729;BME280;25402;42.004;23.088;2023-09-19T02:02:21;97737.19;;;11.41;54.31
39729;BME280;25402;42.004;23.088;2023-09-19T02:04:49;97712.44;;;11.29;54.60
39729;BME280;25402;42.004;23.088;2023-09-19T02:07:16;97724.66;;;11.40;54.36
39729;BME280;25402;42.004;23.088;2023-09-19T02:09:43;97729.41;;;11.38;54.64
39729;BME280;25402;42.004;23.088;2023-09-19T02:12:10;97725.13;;;11.29;54.58
39729;BME280;25402;42.004;23.088;2023-09-19T02:14:38;97737.72;;;11.36;54.27
39729;BME280;25402;42.004;23.088;2023-09-19T02:17:06;97730.53;;;11.29;54.47
39729;BME280;25402;42.004;23.088;2023-09-19T02:19:38;97722.84;;;11.18;54.76
39729;BME280;25402;42.004;23.088;2023-09-19T02:22:07;97740.06;;;11.25;54.39
39729;BME280;25402;42.004;23.088;2023-09-19T02:24:36;97734.00;;;11.23;54.61
39729;BME280;25402;42.004;23.088;2023-09-19T02:27:04;97716.69;;;11.09;54.63
39729;BME280;25402;42.004;23.088;2023-09-19T02:29:33;97732.41;;;11.14;54.45
39729;BME280;25402;42.004;23.088;2023-09-19T02:32:00;97739.03;;;11.11;54.49
39729;BME280;25402;42.004;23.088;2023-09-19T02:34:28;97714.38;;;11.06;54.43
39729;BME280;25402;42.004;23.088;2023-09-19T02:36:57;97729.69;;;11.14;54.94
39729;BME280;25402;42.004;23.088;2023-09-19T02:39:24;97728.19;;;11.11;54.88
39729;BME280;25402;42.004;23.088;2023-09-19T02:41:51;97726.34;;;11.11;54.64
39729;BME280;25402;42.004;23.088;2023-09-19T02:44:18;97702.75;;;10.97;54.61
39729;BME280;25402;42.004;23.088;2023-09-19T02:46:46;97720.63;;;11.06;54.46
39729;BME280;25402;42.004;23.088;2023-09-19T02:49:13;97721.94;;;11.10;54.39
39729;BME280;25402;42.004;23.088;2023-09-19T02:51:40;97719.88;;;11.13;54.91
39729;BME280;25402;42.004;23.088;2023-09-19T02:54:09;97721.56;;;11.14;54.99
39729;BME280;25402;42.004;23.088;2023-09-19T02:56:37;97724.47;;;11.12;55.00
39729;BME280;25402;42.004;23.088;2023-09-19T02:59:04;97686.22;;;10.92;54.61
39729;BME280;25402;42.004;23.088;2023-09-19T03:01:31;97718.03;;;11.13;54.96
39729;BME280;25402;42.004;23.088;2023-09-19T03:03:59;97722.22;;;11.16;55.02
39729;BME280;25402;42.004;23.088;2023-09-19T03:06:26;97718.69;;;11.15;54.98
39729;BME280;25402;42.004;23.088;2023-09-19T03:08:54;97722.06;;;11.17;55.07
39729;BME280;25402;42.004;23.088;2023-09-19T03:11:27;97708.09;;;11.05;55.05
39729;BME280;25402;42.004;23.088;2023-09-19T03:13:54;97720.91;;;11.11;54.55
39729;BME280;25402;42.004;23.088;2023-09-19T03:16:21;97691.16;;;10.89;54.46
39729;BME280;25402;42.004;23.088;2023-09-19T03:18:48;97710.34;;;11.02;54.39
39729;BME280;25402;42.004;23.088;2023-09-19T03:21:16;97709.19;;;10.96;54.56
39729;BME280;25402;42.004;23.088;2023-09-19T03:23:44;97708.06;;;10.91;54.78
39729;BME280;25402;42.004;23.088;2023-09-19T03:26:12;97697.41;;;10.89;54.97
39729;BME280;25402;42.004;23.088;2023-09-19T03:28:42;97710.41;;;10.94;54.63
39729;BME280;25402;42.004;23.088;2023-09-19T03:31:11;97711.59;;;10.91;54.57
39729;BME280;25402;42.004;23.088;2023-09-19T03:33:38;97711.59;;;10.91;54.74
39729;BME280;25402;42.004;23.088;2023-09-19T03:36:05;97717.78;;;10.85;54.64
39729;BME280;25402;42.004;23.088;2023-09-19T03:38:33;97723.63;;;10.89;54.69
39729;BME280;25402;42.004;23.088;2023-09-19T03:41:00;97724.84;;;10.86;54.67
39729;BME280;25402;42.004;23.088;2023-09-19T03:43:27;97716.50;;;10.73;54.64
39729;BME280;25402;42.004;23.088;2023-09-19T03:45:56;97721.25;;;10.71;54.75
39729;BME280;25402;42.004;23.088;2023-09-19T03:48:24;97741.25;;;10.70;54.95
39729;BME280;25402;42.004;23.088;2023-09-19T03:50:52;97743.13;;;10.69;55.07
39729;BME280;25402;42.004;23.088;2023-09-19T03:53:22;97744.97;;;10.69;54.82
39729;BME280;25402;42.004;23.088;2023-09-19T03:55:49;97703.56;;;10.46;54.68
39729;BME280;25402;42.004;23.088;2023-09-19T03:58:16;97747.69;;;10.69;54.55
39729;BME280;25402;42.004;23.088;2023-09-19T04:00:43;97741.25;;;10.70;54.68
39729;BME280;25402;42.004;23.088;2023-09-19T04:03:12;97735.59;;;10.57;55.27
39729;BME280;25402;42.004;23.088;2023-09-19T04:05:45;97739.13;;;10.57;55.45
39729;BME280;25402;42.004;23.088;2023-09-19T04:08:12;97722.81;;;10.51;55.39
39729;BME280;25402;42.004;23.088;2023-09-19T04:10:42;97706.34;;;10.37;57.30
39729;BME280;25402;42.004;23.088;2023-09-19T04:13:09;97727.34;;;11.10;59.03
39729;BME280;25402;42.004;23.088;2023-09-19T04:15:36;97743.44;;;11.56;58.09
39729;BME280;25402;42.004;23.088;2023-09-19T04:18:04;97747.50;;;11.81;56.05
39729;BME280;25402;42.004;23.088;2023-09-19T04:20:32;97751.16;;;12.03;55.91
39729;BME280;25402;42.004;23.088;2023-09-19T04:22:59;97763.09;;;12.24;55.74
39729;BME280;25402;42.004;23.088;2023-09-19T04:25:26;97767.63;;;12.38;55.35
39729;BME280;25402;42.004;23.088;2023-09-19T04:27:54;97758.31;;;12.47;55.48
39729;BME280;25402;42.004;23.088;2023-09-19T04:30:21;97759.28;;;12.61;54.85
39729;BME280;25402;42.004;23.088;2023-09-19T04:32:48;97746.38;;;12.63;54.10
39729;BME280;25402;42.004;23.088;2023-09-19T04:35:17;97771.03;;;12.82;53.31
39729;BME280;25402;42.004;23.088;2023-09-19T04:37:45;97735.03;;;12.74;52.47
39729;BME280;25402;42.004;23.088;2023-09-19T04:40:13;97764.34;;;13.06;51.68
39729;BME280;25402;42.004;23.088;2023-09-19T04:42:42;97767.53;;;13.44;50.59
39729;BME280;25402;42.004;23.088;2023-09-19T04:45:10;97752.94;;;13.86;49.98
39729;BME280;25402;42.004;23.088;2023-09-19T04:47:37;97770.97;;;14.35;48.76
39729;BME280;25402;42.004;23.088;2023-09-19T04:50:09;97755.34;;;14.64;47.57
39729;BME280;25402;42.004;23.088;2023-09-19T04:52:40;97777.41;;;15.08;46.26
39729;BME280;25402;42.004;23.088;2023-09-19T04:55:12;97763.16;;;15.39;44.93
39729;BME280;25402;42.004;23.088;2023-09-19T04:57:43;97746.31;;;15.62;44.13
39729;BME280;25402;42.004;23.088;2023-09-19T05:00:13;97769.09;;;16.01;43.49
39729;BME280;25402;42.004;23.088;2023-09-19T05:02:44;97771.09;;;16.25;42.93
39729;BME280;25402;42.004;23.088;2023-09-19T05:05:12;97766.75;;;16.55;42.19
39729;BME280;25402;42.004;23.088;2023-09-19T05:07:41;97774.81;;;16.82;41.96
39729;BME280;25402;42.004;23.088;2023-09-19T05:10:12;97758.19;;;17.08;40.83
39729;BME280;25402;42.004;23.088;2023-09-19T05:12:39;97738.09;;;17.27;40.19
39729;BME280;25402;42.004;23.088;2023-09-19T05:15:07;97771.66;;;17.59;40.39
39729;BME280;25402;42.004;23.088;2023-09-19T05:17:35;97772.47;;;18.03;38.88
39729;BME280;25402;42.004;23.088;2023-09-19T05:20:02;97752.28;;;18.16;38.90
39729;BME280;25402;42.004;23.088;2023-09-19T05:22:40;97758.50;;;18.41;38.24
39729;BME280;25402;42.004;23.088;2023-09-19T05:25:08;97760.75;;;18.62;37.50
39729;BME280;25402;42.004;23.088;2023-09-19T05:27:37;97768.69;;;19.12;36.77
39729;BME280;25402;42.004;23.088;2023-09-19T05:30:06;97758.44;;;19.42;36.34
39729;BME280;25402;42.004;23.088;2023-09-19T05:32:33;97754.75;;;19.60;35.85
39729;BME280;25402;42.004;23.088;2023-09-19T05:35:00;97752.00;;;19.84;35.60
39729;BME280;25402;42.004;23.088;2023-09-19T05:37:28;97754.75;;;19.84;34.88
39729;BME280;25402;42.004;23.088;2023-09-19T05:39:55;97753.69;;;19.85;35.37
39729;BME280;25402;42.004;23.088;2023-09-19T05:42:23;97753.34;;;19.81;35.56
39729;BME280;25402;42.004;23.088;2023-09-19T05:44:51;97755.31;;;20.09;35.35
39729;BME280;25402;42.004;23.088;2023-09-19T05:47:18;97748.09;;;20.31;34.68
39729;BME280;25402;42.004;23.088;2023-09-19T05:49:45;97750.84;;;20.43;34.42
39729;BME280;25402;42.004;23.088;2023-09-19T05:52:13;97746.91;;;20.39;34.21
39729;BME280;25402;42.004;23.088;2023-09-19T05:54:40;97748.28;;;20.53;34.35
39729;BME280;25402;42.004;23.088;2023-09-19T05:57:08;97753.59;;;20.43;34.24
39729;BME280;25402;42.004;23.088;2023-09-19T05:59:37;97752.38;;;20.67;34.40
39729;BME280;25402;42.004;23.088;2023-09-19T06:02:06;97737.59;;;20.85;34.45
39729;BME280;25402;42.004;23.088;2023-09-19T06:04:34;97737.97;;;20.89;34.24
39729;BME280;25402;42.004;23.088;2023-09-19T06:07:01;97736.22;;;20.99;33.39
39729;BME280;25402;42.004;23.088;2023-09-19T06:09:29;97737.97;;;20.89;34.32
39729;BME280;25402;42.004;23.088;2023-09-19T06:11:57;97734.47;;;20.93;33.88
39729;BME280;25402;42.004;23.088;2023-09-19T06:14:25;97731.75;;;20.81;34.07
39729;BME280;25402;42.004;23.088;2023-09-19T06:16:52;97720.41;;;20.61;34.16
39729;BME280;25402;42.004;23.088;2023-09-19T06:19:24;97718.94;;;20.42;34.68
39729;BME280;25402;42.004;23.088;2023-09-19T06:21:52;97726.03;;;20.55;34.73
39729;BME280;25402;42.004;23.088;2023-09-19T06:24:20;97703.78;;;20.39;34.52
39729;BME280;25402;42.004;23.088;2023-09-19T06:26:47;97721.88;;;20.52;34.61
39729;BME280;25402;42.004;23.088;2023-09-19T06:29:14;97725.38;;;20.64;34.23
39729;BME280;25402;42.004;23.088;2023-09-19T06:31:41;97720.34;;;20.73;34.64
39729;BME280;25402;42.004;23.088;2023-09-19T06:34:10;97711.91;;;20.79;34.09
39729;BME280;25402;42.004;23.088;2023-09-19T06:36:38;97713.63;;;20.97;34.07
39729;BME280;25402;42.004;23.088;2023-09-19T06:39:06;97722.97;;;20.96;34.21
39729;BME280;25402;42.004;23.088;2023-09-19T06:41:36;97717.97;;;21.10;33.55
39729;BME280;25402;42.004;23.088;2023-09-19T06:44:04;97718.31;;;21.13;32.95
39729;BME280;25402;42.004;23.088;2023-09-19T06:46:36;97720.31;;;21.18;32.93
39729;BME280;25402;42.004;23.088;2023-09-19T06:49:06;97687.31;;;21.01;33.24
39729;BME280;25402;42.004;23.088;2023-09-19T06:51:34;97682.63;;;21.02;32.76
39729;BME280;25402;42.004;23.088;2023-09-19T06:54:03;97714.81;;;21.18;32.72
39729;BME280;25402;42.004;23.088;2023-09-19T06:56:31;97611.09;;;20.52;32.74
39729;BME280;25402;42.004;23.088;2023-09-19T06:58:59;97696.16;;;21.03;33.19
39729;BME280;25402;42.004;23.088;2023-09-19T07:01:28;97693.88;;;21.00;33.17
39729;BME280;25402;42.004;23.088;2023-09-19T07:03:57;97690.34;;;20.88;33.06
39729;BME280;25402;42.004;23.088;2023-09-19T07:06:24;97714.13;;;20.94;33.20
39729;BME280;25402;42.004;23.088;2023-09-19T07:08:51;97638.41;;;20.41;33.37
39729;BME280;25402;42.004;23.088;2023-09-19T07:11:20;97696.16;;;20.58;33.48
39729;BME280;25402;42.004;23.088;2023-09-19T07:13:51;97659.94;;;20.33;33.58
39729;BME280;25402;42.004;23.088;2023-09-19T07:16:19;97673.09;;;20.31;33.62
39729;BME280;25402;42.004;23.088;2023-09-19T07:18:55;97706.22;;;20.53;33.74
39729;BME280;25402;42.004;23.088;2023-09-19T07:21:22;97718.78;;;20.48;33.89
39729;BME280;25402;42.004;23.088;2023-09-19T07:23:49;97697.19;;;20.40;33.85
39729;BME280;25402;42.004;23.088;2023-09-19T07:26:16;97714.69;;;20.51;33.88
39729;BME280;25402;42.004;23.088;2023-09-19T07:28:45;97657.31;;;20.38;33.84
39729;BME280;25402;42.004;23.088;2023-09-19T07:31:12;97704.13;;;20.43;34.01
39729;BME280;25402;42.004;23.088;2023-09-19T07:33:40;97713.72;;;20.17;34.40
39729;BME280;25402;42.004;23.088;2023-09-19T07:36:11;97686.56;;;20.04;34.35
39729;BME280;25402;42.004;23.088;2023-09-19T07:38:39;97708.31;;;20.34;34.41
39729;BME280;25402;42.004;23.088;2023-09-19T07:41:07;97672.97;;;20.26;34.43
39729;BME280;25402;42.004;23.088;2023-09-19T07:43:34;97698.06;;;20.58;34.53
39729;BME280;25402;42.004;23.088;2023-09-19T07:46:05;97627.38;;;20.25;33.89
39729;BME280;25402;42.004;23.088;2023-09-19T07:48:34;97674.94;;;20.70;34.23
39729;BME280;25402;42.004;23.088;2023-09-19T07:51:04;97684.31;;;21.03;34.23
39729;BME280;25402;42.004;23.088;2023-09-19T07:53:31;97623.78;;;20.86;33.43
39729;BME280;25402;42.004;23.088;2023-09-19T07:56:04;97644.63;;;21.15;33.39
39729;BME280;25402;42.004;23.088;2023-09-19T07:58:31;97677.81;;;21.64;33.10
39729;BME280;25402;42.004;23.088;2023-09-19T08:01:04;97657.59;;;21.54;32.50
39729;BME280;25402;42.004;23.088;2023-09-19T08:03:32;97638.13;;;21.60;32.27
39729;BME280;25402;42.004;23.088;2023-09-19T08:06:00;97572.34;;;21.20;31.70
39729;BME280;25402;42.004;23.088;2023-09-19T08:08:27;97649.66;;;21.79;32.01
39729;BME280;25402;42.004;23.088;2023-09-19T08:10:54;97663.00;;;22.09;32.12
39729;BME280;25402;42.004;23.088;2023-09-19T08:13:23;97626.22;;;21.98;31.55
39729;BME280;25402;42.004;23.088;2023-09-19T08:15:50;97583.81;;;21.77;31.73
39729;BME280;25402;42.004;23.088;2023-09-19T08:18:22;97609.06;;;22.13;31.46
39729;BME280;25402;42.004;23.088;2023-09-19T08:20:51;97684.66;;;22.49;31.29
39729;BME280;25402;42.004;23.088;2023-09-19T08:23:19;97657.72;;;22.29;30.96
39729;BME280;25402;42.004;23.088;2023-09-19T08:25:47;97624.03;;;22.00;30.87
39729;BME280;25402;42.004;23.088;2023-09-19T08:28:14;97657.63;;;22.19;31.10
39729;BME280;25402;42.004;23.088;2023-09-19T08:30:46;97673.50;;;22.34;31.25
39729;BME280;25402;42.004;23.088;2023-09-19T08:33:13;97637.38;;;22.08;32.04
39729;BME280;25402;42.004;23.088;2023-09-19T08:35:43;97582.50;;;21.80;31.82
39729;BME280;25402;42.004;23.088;2023-09-19T08:38:11;97677.94;;;22.40;31.71
39729;BME280;25402;42.004;23.088;2023-09-19T08:40:40;97665.22;;;22.34;31.58
39729;BME280;25402;42.004;23.088;2023-09-19T08:43:08;97648.63;;;22.29;31.27
39729;BME280;25402;42.004;23.088;2023-09-19T08:45:35;97667.59;;;22.52;30.88
39729;BME280;25402;42.004;23.088;2023-09-19T08:48:15;97649.56;;;22.39;30.70
39729;BME280;25402;42.004;23.088;2023-09-19T08:50:49;97602.72;;;22.12;30.59
39729;BME280;25402;42.004;23.088;2023-09-19T08:53:26;97665.38;;;22.49;30.23
39729;BME280;25402;42.004;23.088;2023-09-19T08:55:55;97612.13;;;22.16;30.61
39729;BME280;25402;42.004;23.088;2023-09-19T08:58:26;97618.88;;;22.31;30.10
39729;BME280;25402;42.004;23.088;2023-09-19T09:00:57;97562.94;;;22.03;29.58
39729;BME280;25402;42.004;23.088;2023-09-19T09:03:32;97662.09;;;22.79;29.52
39729;BME280;25402;42.004;23.088;2023-09-19T09:06:04;97596.97;;;22.46;29.79
39729;BME280;25402;42.004;23.088;2023-09-19T09:08:31;97638.25;;;22.63;29.79
39729;BME280;25402;42.004;23.088;2023-09-19T09:10:59;97640.56;;;22.49;29.91
39729;BME280;25402;42.004;23.088;2023-09-19T09:13:26;97641.34;;;22.71;29.99
39729;BME280;25402;42.004;23.088;2023-09-19T09:15:53;97634.53;;;22.84;29.96
39729;BME280;25402;42.004;23.088;2023-09-19T09:18:21;97573.50;;;22.70;29.60
39729;BME280;25402;42.004;23.088;2023-09-19T09:20:49;97516.84;;;22.58;29.76
39729;BME280;25402;42.004;23.088;2023-09-19T09:23:18;97580.22;;;23.21;29.10
39729;BME280;25402;42.004;23.088;2023-09-19T09:25:47;97535.06;;;22.96;29.10
39729;BME280;25402;42.004;23.088;2023-09-19T09:28:19;97498.31;;;22.85;29.05
39729;BME280;25402;42.004;23.088;2023-09-19T09:30:47;97574.28;;;23.45;28.75
39729;BME280;25402;42.004;23.088;2023-09-19T09:33:16;97492.69;;;23.12;28.90
39729;BME280;25402;42.004;23.088;2023-09-19T09:35:50;97571.94;;;23.74;28.85
39729;BME280;25402;42.004;23.088;2023-09-19T09:38:21;97588.34;;;24.11;28.57
39729;BME280;25402;42.004;23.088;2023-09-19T09:40:52;97568.69;;;23.97;28.55
39729;BME280;25402;42.004;23.088;2023-09-19T09:43:28;97583.69;;;24.21;28.24
39729;BME280;25402;42.004;23.088;2023-09-19T09:46:10;97549.38;;;24.02;28.36
39729;BME280;25402;42.004;23.088;2023-09-19T09:48:57;97581.38;;;23.88;28.55
39729;BME280;25402;42.004;23.088;2023-09-19T09:51:38;97568.13;;;23.95;28.97
39729;BME280;25402;42.004;23.088;2023-09-19T09:54:15;97562.59;;;23.85;29.07
39729;BME280;25402;42.004;23.088;2023-09-19T09:56:53;97553.19;;;23.76;29.12
39729;BME280;25402;42.004;23.088;2023-09-19T09:59:48;97563.72;;;23.99;29.17
39729;BME280;25402;42.004;23.088;2023-09-19T10:02:17;97526.91;;;23.78;29.50
39729;BME280;25402;42.004;23.088;2023-09-19T10:04:52;97553.78;;;23.98;29.42
39729;BME280;25402;42.004;23.088;2023-09-19T10:07:29;97554.34;;;24.05;29.24
39729;BME280;25402;42.004;23.088;2023-09-19T10:10:03;97561.53;;;24.11;29.33
39729;BME280;25402;42.004;23.088;2023-09-19T10:12:44;97544.69;;;24.18;29.68
39729;BME280;25402;42.004;23.088;2023-09-19T10:15:17;97549.44;;;24.48;29.11
39729;BME280;25402;42.004;23.088;2023-09-19T10:17:46;97464.28;;;24.24;28.55
39729;BME280;25402;42.004;23.088;2023-09-19T10:20:15;97504.91;;;24.59;28.53
39729;BME280;25402;42.004;23.088;2023-09-19T10:23:04;97540.59;;;24.76;27.58
39729;BME280;25402;42.004;23.088;2023-09-19T10:25:37;97538.13;;;24.85;27.91
39729;BME280;25402;42.004;23.088;2023-09-19T10:28:06;97535.31;;;25.00;27.64
39729;BME280;25402;42.004;23.088;2023-09-19T10:30:37;97405.97;;;24.31;27.65
39729;BME280;25402;42.004;23.088;2023-09-19T10:33:09;97481.59;;;25.06;27.42
39729;BME280;25402;42.004;23.088;2023-09-19T10:35:39;97486.28;;;25.31;27.17
39729;BME280;25402;42.004;23.088;2023-09-19T10:38:10;97484.13;;;25.67;26.76
39729;BME280;25402;42.004;23.088;2023-09-19T10:40:39;97437.09;;;25.57;26.47
39729;BME280;25402;42.004;23.088;2023-09-19T10:43:12;97508.09;;;25.97;26.47
39729;BME280;25402;42.004;23.088;2023-09-19T10:45:41;97513.59;;;26.02;26.03
39729;BME280;25402;42.004;23.088;2023-09-19T10:48:10;97440.13;;;25.66;25.76
39729;BME280;25402;42.004;23.088;2023-09-19T10:50:44;97484.66;;;26.18;25.75
39729;BME280;25402;42.004;23.088;2023-09-19T10:53:12;97421.53;;;26.10;25.59
39729;BME280;25402;42.004;23.088;2023-09-19T10:55:49;97469.50;;;26.74;25.24
39729;BME280;25402;42.004;23.088;2023-09-19T10:58:28;97428.59;;;26.84;24.99
39729;BME280;25402;42.004;23.088;2023-09-19T11:00:57;97464.75;;;27.27;24.29
39729;BME280;25402;42.004;23.088;2023-09-19T11:03:31;97423.66;;;27.24;24.11
39729;BME280;25402;42.004;23.088;2023-09-19T11:06:10;97470.31;;;27.69;23.66
39729;BME280;25402;42.004;23.088;2023-09-19T11:08:53;97451.88;;;27.79;23.45
39729;BME280;25402;42.004;23.088;2023-09-19T11:11:57;97465.59;;;28.08;23.50
39729;BME280;25402;42.004;23.088;2023-09-19T11:14:44;97448.09;;;28.07;22.36
39729;BME280;25402;42.004;23.088;2023-09-19T11:17:41;97430.06;;;28.23;22.23
39729;BME280;25402;42.004;23.088;2023-09-19T11:20:20;97449.56;;;28.37;22.61
39729;BME280;25402;42.004;23.088;2023-09-19T11:23:19;97444.16;;;28.59;22.84
39729;BME280;25402;42.004;23.088;2023-09-19T11:25:50;97418.81;;;28.61;22.35
39729;BME280;25402;42.004;23.088;2023-09-19T11:28:35;97396.31;;;28.44;21.79
39729;BME280;25402;42.004;23.088;2023-09-19T11:34:39;97424.78;;;28.22;22.32
39729;BME280;25402;42.004;23.088;2023-09-19T11:40:08;97384.94;;;28.26;22.61
39729;BME280;25402;42.004;23.088;2023-09-19T11:42:42;97376.59;;;28.26;22.93
39729;BME280;25402;42.004;23.088;2023-09-19T11:48:14;97397.63;;;28.79;21.99
39729;BME280;25402;42.004;23.088;2023-09-19T11:50:42;97388.03;;;28.85;21.70
39729;BME280;25402;42.004;23.088;2023-09-19T11:53:10;97383.28;;;28.85;21.06
39729;BME280;25402;42.004;23.088;2023-09-19T11:55:37;97309.34;;;28.52;21.73
39729;BME280;25402;42.004;23.088;2023-09-19T11:58:06;97373.50;;;28.88;21.48
39729;BME280;25402;42.004;23.088;2023-09-19T12:00:35;97372.38;;;28.75;21.78
39729;BME280;25402;42.004;23.088;2023-09-19T12:03:10;97368.41;;;28.49;22.38
39729;BME280;25402;42.004;23.088;2023-09-19T12:05:39;97370.75;;;28.42;22.15
39729;BME280;25402;42.004;23.088;2023-09-19T12:08:07;97334.56;;;28.28;22.12
39729;BME280;25402;42.004;23.088;2023-09-19T12:10:45;97352.84;;;28.61;21.94
39729;BME280;25402;42.004;23.088;2023-09-19T12:13:21;97344.50;;;28.61;21.74
39729;BME280;25402;42.004;23.088;2023-09-19T12:15:48;97336.25;;;28.43;22.04
39729;BME280;25402;42.004;23.088;2023-09-19T12:18:28;97351.06;;;28.38;22.28
39729;BME280;25402;42.004;23.088;2023-09-19T12:20:57;97306.34;;;27.88;22.86
39729;BME280;25402;42.004;23.088;2023-09-19T12:23:25;97300.81;;;27.69;22.74
39729;BME280;25402;42.004;23.088;2023-09-19T12:25:53;97289.81;;;27.46;22.84
39729;BME280;25402;42.004;23.088;2023-09-19T12:28:25;97320.88;;;27.66;23.07
39729;BME280;25402;42.004;23.088;2023-09-19T12:30:54;97313.97;;;27.64;23.05
39729;BME280;25402;42.004;23.088;2023-09-19T12:33:23;97318.69;;;27.63;23.36
39729;BME280;25402;42.004;23.088;2023-09-19T12:35:51;97305.22;;;27.70;23.53
39729;BME280;25402;42.004;23.088;2023-09-19T12:38:25;97242.81;;;27.49;23.08
39729;BME280;25402;42.004;23.088;2023-09-19T12:40:54;97329.25;;;27.99;24.28
39729;BME280;25402;42.004;23.088;2023-09-19T12:43:25;97343.00;;;27.90;24.32
39729;BME280;25402;42.004;23.088;2023-09-19T12:45:52;97326.91;;;27.87;23.22
39729;BME280;25402;42.004;23.088;2023-09-19T12:48:24;97281.16;;;27.47;23.15
39729;BME280;25402;42.004;23.088;2023-09-19T12:51:04;97318.75;;;27.58;23.79
39729;BME280;25402;42.004;23.088;2023-09-19T12:53:37;97219.66;;;26.84;24.06
39729;BME280;25402;42.004;23.088;2023-09-19T12:56:08;97311.38;;;27.35;24.36
39729;BME280;25402;42.004;23.088;2023-09-19T12:58:48;97226.03;;;26.84;24.47
39729;BME280;25402;42.004;23.088;2023-09-19T13:01:17;97280.00;;;27.34;24.76
39729;BME280;25402;42.004;23.088;2023-09-19T13:03:45;97274.09;;;27.55;23.91
39729;BME280;25402;42.004;23.088;2023-09-19T13:06:12;97287.97;;;27.74;23.85
39729;BME280;25402;42.004;23.088;2023-09-19T13:08:44;97292.81;;;28.00;23.74
39729;BME280;25402;42.004;23.088;2023-09-19T13:11:20;97300.91;;;28.29;22.98
39729;BME280;25402;42.004;23.088;2023-09-19T13:13:49;97241.56;;;27.88;23.64
39729;BME280;25402;42.004;23.088;2023-09-19T13:16:22;97292.13;;;28.36;23.33
39729;BME280;25402;42.004;23.088;2023-09-19T13:18:52;97218.22;;;27.89;23.03
39729;BME280;25402;42.004;23.088;2023-09-19T13:21:29;97255.81;;;28.00;23.25